sensor_id;sensor_type;location;lat;lon;timestamp;P1;durP1;ratioP1;P2;durP2;ratioP2
18090;SDS011;9172;49.948;9.208;2023-05-20T00:00:17;2.73;;;1.63;;
18090;SDS011;9172;49.948;9.208;2023-05-20T00:02:45;6.97;;;2.83;;
18090;SDS011;9172;49.948;9.208;2023-05-20T00:05:14;3.93;;;1.90;;
18090;SDS011;9172;49.948;9.208;2023-05-20T00:07:43;2.30;;;1.90;;
18090;SDS011;9172;49.948;9.208;2023-05-20T00:10:13;4.27;;;1.90;;
18090;SDS011;9172;49.948;9.208;2023-05-20T00:12:42;4.03;;;2.23;;
18090;SDS011;9172;49.948;9.208;2023-05-20T00:15:12;4.40;;;2.20;;
18090;SDS011;9172;49.948;9.208;2023-05-20T00:17:41;4.87;;;2.30;;
18090;SDS011;9172;49.948;9.208;2023-05-20T00:20:10;6.23;;;3.03;;
18090;SDS011;9172;49.948;9.208;2023-05-20T00:22:40;3.97;;;1.90;;
18090;SDS011;9172;49.948;9.208;2023-05-20T00:25:10;4.17;;;2.17;;
18090;SDS011;9172;49.948;9.208;2023-05-20T00:27:39;3.27;;;1.80;;
18090;SDS011;9172;49.948;9.208;2023-05-20T00:30:10;5.13;;;1.83;;
18090;SDS011;9172;49.948;9.208;2023-05-20T00:32:39;3.83;;;1.80;;
18090;SDS011;9172;49.948;9.208;2023-05-20T00:35:07;4.73;;;2.03;;
18090;SDS011;9172;49.948;9.208;2023-05-20T00:37:37;5.37;;;2.30;;
18090;SDS011;9172;49.948;9.208;2023-05-20T00:40:07;3.00;;;1.90;;
18090;SDS011;9172;49.948;9.208;2023-05-20T00:42:36;2.90;;;1.77;;
18090;SDS011;9172;49.948;9.208;2023-05-20T00:45:06;6.43;;;2.17;;
18090;SDS011;9172;49.948;9.208;2023-05-20T00:47:35;2.97;;;1.90;;
18090;SDS011;9172;49.948;9.208;2023-05-20T00:50:05;4.43;;;2.30;;
18090;SDS011;9172;49.948;9.208;2023-05-20T00:52:36;4.30;;;2.30;;
18090;SDS011;9172;49.948;9.208;2023-05-20T00:55:07;6.83;;;2.03;;
18090;SDS011;9172;49.948;9.208;2023-05-20T00:57:36;6.43;;;2.33;;
18090;SDS011;9172;49.948;9.208;2023-05-20T01:00:05;7.20;;;2.20;;
18090;SDS011;9172;49.948;9.208;2023-05-20T01:02:36;4.13;;;2.20;;
18090;SDS011;9172;49.948;9.208;2023-05-20T01:05:06;3.87;;;2.43;;
18090;SDS011;9172;49.948;9.208;2023-05-20T01:07:35;2.83;;;2.23;;
18090;SDS011;9172;49.948;9.208;2023-05-20T01:10:05;3.67;;;2.10;;
18090;SDS011;9172;49.948;9.208;2023-05-20T01:12:37;5.43;;;2.33;;
18090;SDS011;9172;49.948;9.208;2023-05-20T01:15:09;5.10;;;2.37;;
18090;SDS011;9172;49.948;9.208;2023-05-20T01:17:39;4.03;;;1.80;;
18090;SDS011;9172;49.948;9.208;2023-05-20T01:20:12;3.80;;;2.20;;
18090;SDS011;9172;49.948;9.208;2023-05-20T01:22:46;5.07;;;2.10;;
18090;SDS011;9172;49.948;9.208;2023-05-20T01:25:16;2.70;;;2.10;;
18090;SDS011;9172;49.948;9.208;2023-05-20T01:27:45;3.17;;;2.27;;
18090;SDS011;9172;49.948;9.208;2023-05-20T01:30:15;3.57;;;2.20;;
18090;SDS011;9172;49.948;9.208;2023-05-20T01:32:45;3.23;;;1.90;;
18090;SDS011;9172;49.948;9.208;2023-05-20T01:35:18;3.27;;;2.23;;
18090;SDS011;9172;49.948;9.208;2023-05-20T01:37:49;3.77;;;2.10;;
18090;SDS011;9172;49.948;9.208;2023-05-20T01:40:20;3.87;;;2.17;;
18090;SDS011;9172;49.948;9.208;2023-05-20T01:42:49;6.17;;;2.40;;
18090;SDS011;9172;49.948;9.208;2023-05-20T01:45:20;3.33;;;2.10;;
18090;SDS011;9172;49.948;9.208;2023-05-20T01:47:51;5.33;;;2.43;;
18090;SDS011;9172;49.948;9.208;2023-05-20T01:50:20;8.00;;;2.53;;
18090;SDS011;9172;49.948;9.208;2023-05-20T01:52:49;5.20;;;2.27;;
18090;SDS011;9172;49.948;9.208;2023-05-20T01:55:19;3.80;;;2.50;;
18090;SDS011;9172;49.948;9.208;2023-05-20T01:57:48;2.47;;;2.20;;
18090;SDS011;9172;49.948;9.208;2023-05-20T02:00:16;3.43;;;2.13;;
18090;SDS011;9172;49.948;9.208;2023-05-20T02:02:46;4.40;;;2.47;;
18090;SDS011;9172;49.948;9.208;2023-05-20T02:05:16;5.53;;;2.30;;
18090;SDS011;9172;49.948;9.208;2023-05-20T02:07:46;4.07;;;2.33;;
18090;SDS011;9172;49.948;9.208;2023-05-20T02:10:15;4.60;;;2.57;;
18090;SDS011;9172;49.948;9.208;2023-05-20T02:12:44;5.60;;;2.27;;
18090;SDS011;9172;49.948;9.208;2023-05-20T02:15:15;4.20;;;2.30;;
18090;SDS011;9172;49.948;9.208;2023-05-20T02:17:44;6.00;;;2.53;;
18090;SDS011;9172;49.948;9.208;2023-05-20T02:20:14;2.93;;;2.10;;
18090;SDS011;9172;49.948;9.208;2023-05-20T02:22:43;4.60;;;2.67;;
18090;SDS011;9172;49.948;9.208;2023-05-20T02:25:12;3.20;;;1.83;;
18090;SDS011;9172;49.948;9.208;2023-05-20T02:27:41;3.57;;;2.40;;
18090;SDS011;9172;49.948;9.208;2023-05-20T02:30:10;5.17;;;2.40;;
18090;SDS011;9172;49.948;9.208;2023-05-20T02:32:38;4.47;;;2.10;;
18090;SDS011;9172;49.948;9.208;2023-05-20T02:35:08;4.13;;;2.60;;
18090;SDS011;9172;49.948;9.208;2023-05-20T02:37:38;4.10;;;2.47;;
18090;SDS011;9172;49.948;9.208;2023-05-20T02:40:07;4.70;;;2.93;;
18090;SDS011;9172;49.948;9.208;2023-05-20T02:42:37;4.90;;;2.07;;
18090;SDS011;9172;49.948;9.208;2023-05-20T02:45:07;4.53;;;2.67;;
18090;SDS011;9172;49.948;9.208;2023-05-20T02:47:36;7.77;;;2.87;;
18090;SDS011;9172;49.948;9.208;2023-05-20T02:50:05;5.90;;;2.50;;
18090;SDS011;9172;49.948;9.208;2023-05-20T02:52:34;3.77;;;2.33;;
18090;SDS011;9172;49.948;9.208;2023-05-20T02:55:05;4.67;;;2.80;;
18090;SDS011;9172;49.948;9.208;2023-05-20T02:57:36;8.50;;;2.73;;
18090;SDS011;9172;49.948;9.208;2023-05-20T03:00:06;4.30;;;2.17;;
18090;SDS011;9172;49.948;9.208;2023-05-20T03:02:36;4.23;;;2.47;;
18090;SDS011;9172;49.948;9.208;2023-05-20T03:05:05;3.73;;;2.63;;
18090;SDS011;9172;49.948;9.208;2023-05-20T03:07:35;4.07;;;3.00;;
18090;SDS011;9172;49.948;9.208;2023-05-20T03:10:06;4.63;;;2.87;;
18090;SDS011;9172;49.948;9.208;2023-05-20T03:12:36;5.93;;;2.77;;
18090;SDS011;9172;49.948;9.208;2023-05-20T03:15:06;5.67;;;2.90;;
18090;SDS011;9172;49.948;9.208;2023-05-20T03:17:37;5.60;;;2.93;;
18090;SDS011;9172;49.948;9.208;2023-05-20T03:20:07;6.33;;;3.30;;
18090;SDS011;9172;49.948;9.208;2023-05-20T03:22:38;3.90;;;2.90;;
18090;SDS011;9172;49.948;9.208;2023-05-20T03:25:08;5.73;;;2.70;;
18090;SDS011;9172;49.948;9.208;2023-05-20T03:27:37;11.23;;;2.87;;
18090;SDS011;9172;49.948;9.208;2023-05-20T03:30:08;3.97;;;2.67;;
18090;SDS011;9172;49.948;9.208;2023-05-20T03:32:37;6.90;;;2.97;;
18090;SDS011;9172;49.948;9.208;2023-05-20T03:35:07;5.87;;;3.30;;
18090;SDS011;9172;49.948;9.208;2023-05-20T03:37:36;5.50;;;3.17;;
18090;SDS011;9172;49.948;9.208;2023-05-20T03:40:06;4.37;;;3.07;;
18090;SDS011;9172;49.948;9.208;2023-05-20T03:42:38;8.57;;;3.00;;
18090;SDS011;9172;49.948;9.208;2023-05-20T03:45:07;3.77;;;3.10;;
18090;SDS011;9172;49.948;9.208;2023-05-20T03:47:37;4.93;;;3.00;;
18090;SDS011;9172;49.948;9.208;2023-05-20T03:50:06;7.67;;;2.90;;
18090;SDS011;9172;49.948;9.208;2023-05-20T03:52:36;3.80;;;2.93;;
18090;SDS011;9172;49.948;9.208;2023-05-20T03:55:07;4.93;;;2.87;;
18090;SDS011;9172;49.948;9.208;2023-05-20T03:57:36;4.10;;;3.20;;
18090;SDS011;9172;49.948;9.208;2023-05-20T04:00:06;6.33;;;3.53;;
18090;SDS011;9172;49.948;9.208;2023-05-20T04:02:37;4.07;;;2.80;;
18090;SDS011;9172;49.948;9.208;2023-05-20T04:05:07;4.70;;;3.00;;
18090;SDS011;9172;49.948;9.208;2023-05-20T04:07:36;4.07;;;3.07;;
18090;SDS011;9172;49.948;9.208;2023-05-20T04:10:07;10.93;;;3.77;;
18090;SDS011;9172;49.948;9.208;2023-05-20T04:12:36;5.10;;;3.07;;
18090;SDS011;9172;49.948;9.208;2023-05-20T04:15:06;5.27;;;3.27;;
18090;SDS011;9172;49.948;9.208;2023-05-20T04:17:36;5.37;;;2.80;;
18090;SDS011;9172;49.948;9.208;2023-05-20T04:20:06;5.80;;;3.77;;
18090;SDS011;9172;49.948;9.208;2023-05-20T04:22:36;6.77;;;3.17;;
18090;SDS011;9172;49.948;9.208;2023-05-20T04:25:05;5.80;;;3.00;;
18090;SDS011;9172;49.948;9.208;2023-05-20T04:27:35;7.23;;;2.93;;
18090;SDS011;9172;49.948;9.208;2023-05-20T04:30:06;8.03;;;3.77;;
18090;SDS011;9172;49.948;9.208;2023-05-20T04:32:36;5.00;;;3.40;;
18090;SDS011;9172;49.948;9.208;2023-05-20T04:35:07;4.63;;;3.03;;
18090;SDS011;9172;49.948;9.208;2023-05-20T04:37:38;4.97;;;3.13;;
18090;SDS011;9172;49.948;9.208;2023-05-20T04:40:10;6.27;;;3.87;;
18090;SDS011;9172;49.948;9.208;2023-05-20T04:42:40;7.73;;;3.63;;
18090;SDS011;9172;49.948;9.208;2023-05-20T04:45:10;5.97;;;3.10;;
18090;SDS011;9172;49.948;9.208;2023-05-20T04:47:39;4.07;;;2.80;;
18090;SDS011;9172;49.948;9.208;2023-05-20T04:50:09;6.30;;;3.53;;
18090;SDS011;9172;49.948;9.208;2023-05-20T04:52:38;5.93;;;3.07;;
18090;SDS011;9172;49.948;9.208;2023-05-20T04:55:09;6.87;;;3.63;;
18090;SDS011;9172;49.948;9.208;2023-05-20T04:57:38;4.97;;;3.60;;
18090;SDS011;9172;49.948;9.208;2023-05-20T05:00:08;5.40;;;3.67;;
18090;SDS011;9172;49.948;9.208;2023-05-20T05:02:38;5.60;;;3.50;;
18090;SDS011;9172;49.948;9.208;2023-05-20T05:05:08;4.60;;;3.20;;
18090;SDS011;9172;49.948;9.208;2023-05-20T05:07:36;4.67;;;3.30;;
18090;SDS011;9172;49.948;9.208;2023-05-20T05:10:06;7.57;;;3.70;;
18090;SDS011;9172;49.948;9.208;2023-05-20T05:12:38;4.07;;;3.30;;
18090;SDS011;9172;49.948;9.208;2023-05-20T05:15:07;6.70;;;3.97;;
18090;SDS011;9172;49.948;9.208;2023-05-20T05:17:37;6.87;;;3.93;;
18090;SDS011;9172;49.948;9.208;2023-05-20T05:20:08;6.70;;;3.07;;
18090;SDS011;9172;49.948;9.208;2023-05-20T05:22:38;4.93;;;3.70;;
18090;SDS011;9172;49.948;9.208;2023-05-20T05:25:07;7.40;;;3.67;;
18090;SDS011;9172;49.948;9.208;2023-05-20T05:27:38;7.73;;;3.77;;
18090;SDS011;9172;49.948;9.208;2023-05-20T05:30:08;5.33;;;3.70;;
18090;SDS011;9172;49.948;9.208;2023-05-20T05:35:14;5.73;;;3.93;;
18090;SDS011;9172;49.948;9.208;2023-05-20T05:37:43;5.30;;;3.27;;
18090;SDS011;9172;49.948;9.208;2023-05-20T05:40:12;6.10;;;3.80;;
18090;SDS011;9172;49.948;9.208;2023-05-20T05:42:41;6.10;;;3.67;;
18090;SDS011;9172;49.948;9.208;2023-05-20T05:45:10;6.63;;;3.90;;
18090;SDS011;9172;49.948;9.208;2023-05-20T05:47:39;4.20;;;3.10;;
18090;SDS011;9172;49.948;9.208;2023-05-20T05:50:09;8.00;;;4.17;;
18090;SDS011;9172;49.948;9.208;2023-05-20T05:52:38;5.03;;;3.83;;
18090;SDS011;9172;49.948;9.208;2023-05-20T05:55:08;5.87;;;3.67;;
18090;SDS011;9172;49.948;9.208;2023-05-20T05:57:37;5.40;;;3.53;;
18090;SDS011;9172;49.948;9.208;2023-05-20T06:00:07;5.10;;;3.77;;
18090;SDS011;9172;49.948;9.208;2023-05-20T06:02:39;5.60;;;3.73;;
18090;SDS011;9172;49.948;9.208;2023-05-20T06:05:08;7.47;;;3.57;;
18090;SDS011;9172;49.948;9.208;2023-05-20T06:07:38;7.20;;;4.40;;
18090;SDS011;9172;49.948;9.208;2023-05-20T06:10:08;5.97;;;4.00;;
18090;SDS011;9172;49.948;9.208;2023-05-20T06:12:38;6.97;;;4.17;;
18090;SDS011;9172;49.948;9.208;2023-05-20T06:15:08;6.73;;;3.80;;
18090;SDS011;9172;49.948;9.208;2023-05-20T06:17:37;5.80;;;3.80;;
18090;SDS011;9172;49.948;9.208;2023-05-20T06:20:07;6.20;;;4.20;;
18090;SDS011;9172;49.948;9.208;2023-05-20T06:22:36;6.63;;;4.30;;
18090;SDS011;9172;49.948;9.208;2023-05-20T06:25:05;6.33;;;4.10;;
18090;SDS011;9172;49.948;9.208;2023-05-20T06:27:37;9.00;;;3.87;;
18090;SDS011;9172;49.948;9.208;2023-05-20T06:30:09;7.00;;;4.60;;
18090;SDS011;9172;49.948;9.208;2023-05-20T06:32:38;11.50;;;4.37;;
18090;SDS011;9172;49.948;9.208;2023-05-20T06:35:08;6.13;;;4.43;;
18090;SDS011;9172;49.948;9.208;2023-05-20T06:37:38;6.20;;;3.73;;
18090;SDS011;9172;49.948;9.208;2023-05-20T06:40:09;6.67;;;4.20;;
18090;SDS011;9172;49.948;9.208;2023-05-20T06:42:38;7.27;;;4.43;;
18090;SDS011;9172;49.948;9.208;2023-05-20T06:45:10;6.37;;;4.13;;
18090;SDS011;9172;49.948;9.208;2023-05-20T06:47:39;5.70;;;3.90;;
18090;SDS011;9172;49.948;9.208;2023-05-20T06:50:08;6.10;;;4.07;;
18090;SDS011;9172;49.948;9.208;2023-05-20T06:52:37;11.03;;;5.23;;
18090;SDS011;9172;49.948;9.208;2023-05-20T06:55:06;5.17;;;4.13;;
18090;SDS011;9172;49.948;9.208;2023-05-20T06:57:36;12.40;;;3.97;;
18090;SDS011;9172;49.948;9.208;2023-05-20T07:00:06;8.40;;;4.17;;
18090;SDS011;9172;49.948;9.208;2023-05-20T07:02:38;5.63;;;4.03;;
18090;SDS011;9172;49.948;9.208;2023-05-20T07:05:08;9.03;;;5.20;;
18090;SDS011;9172;49.948;9.208;2023-05-20T07:07:38;6.03;;;4.33;;
18090;SDS011;9172;49.948;9.208;2023-05-20T07:10:08;15.27;;;4.27;;
18090;SDS011;9172;49.948;9.208;2023-05-20T07:12:37;6.57;;;4.63;;
18090;SDS011;9172;49.948;9.208;2023-05-20T07:15:07;9.80;;;4.73;;
18090;SDS011;9172;49.948;9.208;2023-05-20T07:17:38;6.30;;;4.60;;
18090;SDS011;9172;49.948;9.208;2023-05-20T07:20:07;7.40;;;4.57;;
18090;SDS011;9172;49.948;9.208;2023-05-20T07:22:37;7.87;;;4.60;;
18090;SDS011;9172;49.948;9.208;2023-05-20T07:25:09;7.47;;;4.73;;
18090;SDS011;9172;49.948;9.208;2023-05-20T07:27:38;9.40;;;4.43;;
18090;SDS011;9172;49.948;9.208;2023-05-20T07:30:08;7.43;;;4.73;;
18090;SDS011;9172;49.948;9.208;2023-05-20T07:32:37;7.80;;;4.60;;
18090;SDS011;9172;49.948;9.208;2023-05-20T07:35:07;6.67;;;4.60;;
18090;SDS011;9172;49.948;9.208;2023-05-20T07:37:36;6.13;;;4.93;;
18090;SDS011;9172;49.948;9.208;2023-05-20T07:40:06;7.97;;;5.07;;
18090;SDS011;9172;49.948;9.208;2023-05-20T07:42:36;7.90;;;4.83;;
18090;SDS011;9172;49.948;9.208;2023-05-20T07:45:05;7.83;;;4.47;;
18090;SDS011;9172;49.948;9.208;2023-05-20T07:47:36;7.33;;;5.40;;
18090;SDS011;9172;49.948;9.208;2023-05-20T07:50:07;8.67;;;5.07;;
18090;SDS011;9172;49.948;9.208;2023-05-20T07:52:37;6.10;;;4.13;;
18090;SDS011;9172;49.948;9.208;2023-05-20T07:55:07;6.10;;;4.40;;
18090;SDS011;9172;49.948;9.208;2023-05-20T07:57:35;6.93;;;4.60;;
18090;SDS011;9172;49.948;9.208;2023-05-20T08:00:04;7.13;;;4.63;;
18090;SDS011;9172;49.948;9.208;2023-05-20T08:02:37;6.70;;;4.57;;
18090;SDS011;9172;49.948;9.208;2023-05-20T08:05:07;7.60;;;4.67;;
18090;SDS011;9172;49.948;9.208;2023-05-20T08:07:37;11.37;;;5.20;;
18090;SDS011;9172;49.948;9.208;2023-05-20T08:10:08;9.87;;;5.33;;
18090;SDS011;9172;49.948;9.208;2023-05-20T08:12:37;6.07;;;4.77;;
18090;SDS011;9172;49.948;9.208;2023-05-20T08:15:09;7.53;;;4.67;;
18090;SDS011;9172;49.948;9.208;2023-05-20T08:17:38;8.03;;;4.97;;
18090;SDS011;9172;49.948;9.208;2023-05-20T08:20:08;8.97;;;5.50;;
18090;SDS011;9172;49.948;9.208;2023-05-20T08:22:38;7.57;;;4.70;;
18090;SDS011;9172;49.948;9.208;2023-05-20T08:25:08;8.57;;;5.23;;
18090;SDS011;9172;49.948;9.208;2023-05-20T08:27:36;8.03;;;4.97;;
18090;SDS011;9172;49.948;9.208;2023-05-20T08:30:07;10.53;;;5.27;;
18090;SDS011;9172;49.948;9.208;2023-05-20T08:32:37;7.73;;;4.67;;
18090;SDS011;9172;49.948;9.208;2023-05-20T08:35:06;9.07;;;5.37;;
18090;SDS011;9172;49.948;9.208;2023-05-20T08:37:35;6.27;;;4.33;;
18090;SDS011;9172;49.948;9.208;2023-05-20T08:40:05;10.77;;;5.47;;
18090;SDS011;9172;49.948;9.208;2023-05-20T08:42:35;6.60;;;4.57;;
18090;SDS011;9172;49.948;9.208;2023-05-20T08:45:09;6.97;;;4.63;;
18090;SDS011;9172;49.948;9.208;2023-05-20T08:47:39;8.40;;;5.00;;
18090;SDS011;9172;49.948;9.208;2023-05-20T08:50:10;9.40;;;5.17;;
18090;SDS011;9172;49.948;9.208;2023-05-20T08:52:41;10.63;;;5.20;;
18090;SDS011;9172;49.948;9.208;2023-05-20T08:55:13;18.73;;;5.97;;
18090;SDS011;9172;49.948;9.208;2023-05-20T08:57:45;8.60;;;5.07;;
18090;SDS011;9172;49.948;9.208;2023-05-20T09:00:15;15.67;;;5.80;;
18090;SDS011;9172;49.948;9.208;2023-05-20T09:02:46;6.27;;;4.83;;
18090;SDS011;9172;49.948;9.208;2023-05-20T09:05:16;19.07;;;5.73;;
18090;SDS011;9172;49.948;9.208;2023-05-20T09:07:46;7.87;;;5.37;;
18090;SDS011;9172;49.948;9.208;2023-05-20T09:10:15;9.87;;;5.07;;
18090;SDS011;9172;49.948;9.208;2023-05-20T09:12:43;7.30;;;4.93;;
18090;SDS011;9172;49.948;9.208;2023-05-20T09:15:12;14.63;;;5.13;;
18090;SDS011;9172;49.948;9.208;2023-05-20T09:17:42;7.10;;;5.00;;
18090;SDS011;9172;49.948;9.208;2023-05-20T09:23:00;14.20;;;5.30;;
18090;SDS011;9172;49.948;9.208;2023-05-20T09:25:31;9.40;;;5.63;;
18090;SDS011;9172;49.948;9.208;2023-05-20T09:27:59;7.67;;;4.67;;
18090;SDS011;9172;49.948;9.208;2023-05-20T09:30:30;8.63;;;5.30;;
18090;SDS011;9172;49.948;9.208;2023-05-20T09:33:02;9.67;;;5.10;;
18090;SDS011;9172;49.948;9.208;2023-05-20T09:35:33;7.13;;;4.60;;
18090;SDS011;9172;49.948;9.208;2023-05-20T09:38:04;10.27;;;5.07;;
18090;SDS011;9172;49.948;9.208;2023-05-20T09:40:34;9.43;;;5.20;;
18090;SDS011;9172;49.948;9.208;2023-05-20T09:43:05;14.93;;;5.23;;
18090;SDS011;9172;49.948;9.208;2023-05-20T09:45:36;7.80;;;4.90;;
18090;SDS011;9172;49.948;9.208;2023-05-20T09:48:07;6.30;;;4.70;;
18090;SDS011;9172;49.948;9.208;2023-05-20T09:50:39;7.23;;;4.97;;
18090;SDS011;9172;49.948;9.208;2023-05-20T09:53:08;6.20;;;4.30;;
18090;SDS011;9172;49.948;9.208;2023-05-20T09:55:39;7.83;;;4.77;;
18090;SDS011;9172;49.948;9.208;2023-05-20T09:58:10;6.63;;;4.17;;
18090;SDS011;9172;49.948;9.208;2023-05-20T10:00:41;10.70;;;4.80;;
18090;SDS011;9172;49.948;9.208;2023-05-20T10:03:10;5.80;;;4.27;;
18090;SDS011;9172;49.948;9.208;2023-05-20T10:05:40;7.27;;;4.57;;
18090;SDS011;9172;49.948;9.208;2023-05-20T10:08:22;7.87;;;4.80;;
18090;SDS011;9172;49.948;9.208;2023-05-20T10:10:57;8.23;;;5.40;;
18090;SDS011;9172;49.948;9.208;2023-05-20T10:13:34;7.57;;;5.17;;
18090;SDS011;9172;49.948;9.208;2023-05-20T10:16:08;6.80;;;4.50;;
18090;SDS011;9172;49.948;9.208;2023-05-20T10:18:44;12.17;;;4.67;;
18090;SDS011;9172;49.948;9.208;2023-05-20T10:21:17;7.53;;;4.63;;
18090;SDS011;9172;49.948;9.208;2023-05-20T10:23:49;7.80;;;5.07;;
18090;SDS011;9172;49.948;9.208;2023-05-20T10:26:18;6.67;;;4.30;;
18090;SDS011;9172;49.948;9.208;2023-05-20T10:28:47;6.53;;;4.53;;
18090;SDS011;9172;49.948;9.208;2023-05-20T10:31:16;6.23;;;4.80;;
18090;SDS011;9172;49.948;9.208;2023-05-20T10:33:47;8.90;;;4.90;;
18090;SDS011;9172;49.948;9.208;2023-05-20T10:36:24;7.70;;;5.17;;
18090;SDS011;9172;49.948;9.208;2023-05-20T10:38:54;5.73;;;4.10;;
18090;SDS011;9172;49.948;9.208;2023-05-20T10:41:24;8.17;;;4.50;;
18090;SDS011;9172;49.948;9.208;2023-05-20T10:44:00;7.70;;;5.20;;
18090;SDS011;9172;49.948;9.208;2023-05-20T10:46:29;8.43;;;4.40;;
18090;SDS011;9172;49.948;9.208;2023-05-20T10:49:00;6.83;;;4.70;;
18090;SDS011;9172;49.948;9.208;2023-05-20T10:51:31;8.03;;;5.00;;
18090;SDS011;9172;49.948;9.208;2023-05-20T10:54:08;8.03;;;4.90;;
18090;SDS011;9172;49.948;9.208;2023-05-20T10:56:36;9.33;;;5.00;;
18090;SDS011;9172;49.948;9.208;2023-05-20T10:59:07;8.33;;;4.30;;
18090;SDS011;9172;49.948;9.208;2023-05-20T11:01:37;6.90;;;4.40;;
18090;SDS011;9172;49.948;9.208;2023-05-20T11:04:06;7.90;;;5.10;;
18090;SDS011;9172;49.948;9.208;2023-05-20T11:06:37;6.07;;;4.30;;
18090;SDS011;9172;49.948;9.208;2023-05-20T11:09:07;6.80;;;4.67;;
18090;SDS011;9172;49.948;9.208;2023-05-20T11:11:36;7.00;;;4.43;;
18090;SDS011;9172;49.948;9.208;2023-05-20T11:14:06;6.20;;;4.20;;
18090;SDS011;9172;49.948;9.208;2023-05-20T11:16:44;12.90;;;4.70;;
18090;SDS011;9172;49.948;9.208;2023-05-20T11:19:14;9.57;;;4.57;;
18090;SDS011;9172;49.948;9.208;2023-05-20T11:21:44;9.67;;;4.43;;
18090;SDS011;9172;49.948;9.208;2023-05-20T11:24:25;16.67;;;4.93;;
18090;SDS011;9172;49.948;9.208;2023-05-20T11:26:56;7.53;;;4.43;;
18090;SDS011;9172;49.948;9.208;2023-05-20T11:29:26;6.57;;;4.77;;
18090;SDS011;9172;49.948;9.208;2023-05-20T11:32:07;7.77;;;4.37;;
18090;SDS011;9172;49.948;9.208;2023-05-20T11:34:36;8.60;;;4.73;;
18090;SDS011;9172;49.948;9.208;2023-05-20T11:37:06;9.03;;;4.33;;
18090;SDS011;9172;49.948;9.208;2023-05-20T11:39:36;7.07;;;4.83;;
18090;SDS011;9172;49.948;9.208;2023-05-20T11:42:04;10.33;;;4.97;;
18090;SDS011;9172;49.948;9.208;2023-05-20T11:44:34;8.30;;;4.67;;
18090;SDS011;9172;49.948;9.208;2023-05-20T11:47:03;8.07;;;4.83;;
18090;SDS011;9172;49.948;9.208;2023-05-20T11:49:38;7.50;;;4.57;;
18090;SDS011;9172;49.948;9.208;2023-05-20T11:52:08;7.20;;;4.37;;
18090;SDS011;9172;49.948;9.208;2023-05-20T11:54:38;6.33;;;4.30;;
18090;SDS011;9172;49.948;9.208;2023-05-20T11:57:08;9.57;;;4.70;;
18090;SDS011;9172;49.948;9.208;2023-05-20T11:59:39;7.30;;;4.33;;
18090;SDS011;9172;49.948;9.208;2023-05-20T12:02:10;5.83;;;4.33;;
18090;SDS011;9172;49.948;9.208;2023-05-20T12:04:39;5.67;;;4.30;;
18090;SDS011;9172;49.948;9.208;2023-05-20T12:07:08;7.23;;;4.90;;
18090;SDS011;9172;49.948;9.208;2023-05-20T12:09:37;6.80;;;4.63;;
18090;SDS011;9172;49.948;9.208;2023-05-20T12:14:44;6.90;;;4.60;;
18090;SDS011;9172;49.948;9.208;2023-05-20T12:17:13;6.53;;;4.83;;
18090;SDS011;9172;49.948;9.208;2023-05-20T12:19:43;6.90;;;4.60;;
18090;SDS011;9172;49.948;9.208;2023-05-20T12:22:13;9.10;;;5.10;;
18090;SDS011;9172;49.948;9.208;2023-05-20T12:24:42;8.70;;;4.40;;
18090;SDS011;9172;49.948;9.208;2023-05-20T12:27:11;6.90;;;4.23;;
18090;SDS011;9172;49.948;9.208;2023-05-20T12:29:41;7.23;;;4.57;;
18090;SDS011;9172;49.948;9.208;2023-05-20T12:32:09;10.13;;;4.97;;
18090;SDS011;9172;49.948;9.208;2023-05-20T12:34:38;9.67;;;4.97;;
18090;SDS011;9172;49.948;9.208;2023-05-20T12:37:07;7.20;;;4.73;;
18090;SDS011;9172;49.948;9.208;2023-05-20T12:39:35;7.07;;;5.03;;
18090;SDS011;9172;49.948;9.208;2023-05-20T12:42:04;7.73;;;5.00;;
18090;SDS011;9172;49.948;9.208;2023-05-20T12:44:33;8.07;;;4.67;;
18090;SDS011;9172;49.948;9.208;2023-05-20T12:47:02;12.33;;;5.07;;
18090;SDS011;9172;49.948;9.208;2023-05-20T12:49:31;7.20;;;4.97;;
18090;SDS011;9172;49.948;9.208;2023-05-20T12:52:00;10.57;;;5.00;;
18090;SDS011;9172;49.948;9.208;2023-05-20T12:54:29;10.57;;;5.20;;
18090;SDS011;9172;49.948;9.208;2023-05-20T12:56:59;7.33;;;4.90;;
18090;SDS011;9172;49.948;9.208;2023-05-20T12:59:29;7.53;;;5.00;;
18090;SDS011;9172;49.948;9.208;2023-05-20T13:01:59;7.13;;;4.77;;
18090;SDS011;9172;49.948;9.208;2023-05-20T13:04:27;6.27;;;5.07;;
18090;SDS011;9172;49.948;9.208;2023-05-20T13:06:56;8.47;;;5.00;;
18090;SDS011;9172;49.948;9.208;2023-05-20T13:09:26;7.13;;;5.27;;
18090;SDS011;9172;49.948;9.208;2023-05-20T13:11:57;7.60;;;4.77;;
18090;SDS011;9172;49.948;9.208;2023-05-20T13:14:25;7.33;;;5.00;;
18090;SDS011;9172;49.948;9.208;2023-05-20T13:16:54;10.53;;;5.27;;
18090;SDS011;9172;49.948;9.208;2023-05-20T13:19:22;7.27;;;4.77;;
18090;SDS011;9172;49.948;9.208;2023-05-20T13:21:52;7.40;;;5.00;;
18090;SDS011;9172;49.948;9.208;2023-05-20T13:24:21;6.60;;;4.83;;
18090;SDS011;9172;49.948;9.208;2023-05-20T13:26:51;6.37;;;4.80;;
18090;SDS011;9172;49.948;9.208;2023-05-20T13:29:21;8.37;;;5.33;;
18090;SDS011;9172;49.948;9.208;2023-05-20T13:31:51;7.57;;;4.80;;
18090;SDS011;9172;49.948;9.208;2023-05-20T13:34:21;9.70;;;5.37;;
18090;SDS011;9172;49.948;9.208;2023-05-20T13:36:50;8.67;;;4.90;;
18090;SDS011;9172;49.948;9.208;2023-05-20T13:39:18;8.83;;;5.23;;
18090;SDS011;9172;49.948;9.208;2023-05-20T13:41:47;7.43;;;5.23;;
18090;SDS011;9172;49.948;9.208;2023-05-20T13:44:18;9.50;;;5.47;;
18090;SDS011;9172;49.948;9.208;2023-05-20T13:46:46;7.43;;;5.30;;
18090;SDS011;9172;49.948;9.208;2023-05-20T13:49:16;8.27;;;6.07;;
18090;SDS011;9172;49.948;9.208;2023-05-20T13:51:44;8.87;;;5.27;;
18090;SDS011;9172;49.948;9.208;2023-05-20T13:54:13;12.77;;;4.97;;
18090;SDS011;9172;49.948;9.208;2023-05-20T13:56:42;5.97;;;4.47;;
18090;SDS011;9172;49.948;9.208;2023-05-20T13:59:10;8.60;;;5.60;;
18090;SDS011;9172;49.948;9.208;2023-05-20T14:01:41;9.00;;;5.37;;
18090;SDS011;9172;49.948;9.208;2023-05-20T14:04:10;9.13;;;5.13;;
18090;SDS011;9172;49.948;9.208;2023-05-20T14:06:39;7.73;;;4.97;;
18090;SDS011;9172;49.948;9.208;2023-05-20T14:09:09;7.73;;;5.23;;
18090;SDS011;9172;49.948;9.208;2023-05-20T14:11:37;7.30;;;5.17;;
18090;SDS011;9172;49.948;9.208;2023-05-20T14:14:06;8.53;;;5.43;;
18090;SDS011;9172;49.948;9.208;2023-05-20T14:16:34;7.57;;;5.57;;
18090;SDS011;9172;49.948;9.208;2023-05-20T14:19:04;8.20;;;5.50;;
18090;SDS011;9172;49.948;9.208;2023-05-20T14:21:33;6.87;;;4.90;;
18090;SDS011;9172;49.948;9.208;2023-05-20T14:24:02;9.57;;;5.27;;
18090;SDS011;9172;49.948;9.208;2023-05-20T14:26:40;6.60;;;5.00;;
18090;SDS011;9172;49.948;9.208;2023-05-20T14:29:10;8.23;;;5.13;;
18090;SDS011;9172;49.948;9.208;2023-05-20T14:31:41;9.87;;;5.00;;
18090;SDS011;9172;49.948;9.208;2023-05-20T14:34:09;8.47;;;5.63;;
18090;SDS011;9172;49.948;9.208;2023-05-20T14:36:39;10.53;;;5.87;;
18090;SDS011;9172;49.948;9.208;2023-05-20T14:39:08;7.03;;;5.30;;
18090;SDS011;9172;49.948;9.208;2023-05-20T14:41:38;8.57;;;6.27;;
18090;SDS011;9172;49.948;9.208;2023-05-20T14:44:06;6.47;;;4.80;;
18090;SDS011;9172;49.948;9.208;2023-05-20T14:46:37;8.13;;;5.83;;
18090;SDS011;9172;49.948;9.208;2023-05-20T14:49:05;7.57;;;5.27;;
18090;SDS011;9172;49.948;9.208;2023-05-20T14:51:35;8.00;;;5.30;;
18090;SDS011;9172;49.948;9.208;2023-05-20T14:54:03;8.57;;;5.33;;
18090;SDS011;9172;49.948;9.208;2023-05-20T14:56:34;8.37;;;5.63;;
18090;SDS011;9172;49.948;9.208;2023-05-20T14:59:11;9.83;;;5.17;;
18090;SDS011;9172;49.948;9.208;2023-05-20T15:01:40;9.63;;;5.30;;
18090;SDS011;9172;49.948;9.208;2023-05-20T15:04:09;8.83;;;5.63;;
18090;SDS011;9172;49.948;9.208;2023-05-20T15:06:37;9.33;;;5.90;;
18090;SDS011;9172;49.948;9.208;2023-05-20T15:09:07;7.70;;;5.20;;
18090;SDS011;9172;49.948;9.208;2023-05-20T15:14:12;8.37;;;5.60;;
18090;SDS011;9172;49.948;9.208;2023-05-20T15:19:18;7.27;;;5.20;;
18090;SDS011;9172;49.948;9.208;2023-05-20T15:21:46;8.63;;;5.37;;
18090;SDS011;9172;49.948;9.208;2023-05-20T15:24:16;7.60;;;5.13;;
18090;SDS011;9172;49.948;9.208;2023-05-20T15:26:46;8.50;;;5.77;;
18090;SDS011;9172;49.948;9.208;2023-05-20T15:29:14;8.10;;;5.60;;